»·PEaware :: N516GA KEEO-KBTY

N516GA :: KEEO-KBTY

FLIGHT INFORMATION

Flight Status: Arrived
Operator: Privately registered:
United States
More flights under this callsign
Pilot: John H. (7647)
Aircraft: PILATUS PC-12 EAGLE
(PC12)
More flights by this aircraft type
Origin: KEEO Meeker
United States
Destination: KBTY Beatty
United States
More flights between these airports :: More routes between these airports
Route: MLF MMM LAS BTY
File this flight plan on PilotEdge
Remarks:
Altitude:
(Current/Filed)
18,000ft
Speed:
(Current/Filed)
260kts
Departed: 28-May-16 11:16 AM
Arrived: 28-May-16 01:29 PM
Distance/Time
Traveled:
459nm/2:12
Distance/Time
To Go:
Arrived

Flight Plot

Page will automatically refresh every two minutes.


Map Options




Map Legend


Flown Route
Filed Route
Departure Airport
Arrival Airport
Navaid (VOR, NDB)
Fix

Horizontal Profiles

Position Reports

Time Latitude Longitude Heading Altitude Ground
Speed
28-May-16 11:05 40.055542 -107.878669 219 6425ft 0kts
28-May-16 11:06 40.055542 -107.878669 219 6425ft 0kts
28-May-16 11:07 40.055542 -107.878669 219 6425ft 0kts
28-May-16 11:08 40.055542 -107.878669 219 6425ft 0kts
28-May-16 11:09 40.055542 -107.878669 219 6425ft 0kts
28-May-16 11:10 40.055542 -107.878669 219 6425ft 0kts
28-May-16 11:11 40.055542 -107.878669 219 6425ft 0kts
28-May-16 11:12 40.055542 -107.878669 219 6425ft 0kts
28-May-16 11:13 40.055542 -107.878669 219 6425ft 0kts
28-May-16 11:14 40.043115 -107.893977 246 6875ft 111kts
28-May-16 11:15 40.035354 -107.937719 253 8432ft 138kts
28-May-16 11:16 40.022000 -107.988035 250 10090ft 149kts
28-May-16 11:17 40.007755 -108.036380 249 11975ft 138kts
28-May-16 11:18 39.994136 -108.081659 249 13656ft 137kts
28-May-16 11:19 39.979760 -108.129016 249 15161ft 144kts
28-May-16 11:20 39.964984 -108.177606 250 16660ft 145kts
28-May-16 11:21 39.950225 -108.226139 250 17971ft 154kts
28-May-16 11:22 39.931027 -108.289366 250 18003ft 211kts
28-May-16 11:23 39.908106 -108.364305 249 17999ft 229kts
28-May-16 11:24 39.884270 -108.441989 249 17998ft 236kts
28-May-16 11:25 39.859657 -108.521981 249 17994ft 239kts
28-May-16 11:26 39.834879 -108.602267 249 17980ft 240kts
28-May-16 11:27 39.810332 -108.681915 249 17971ft 240kts
28-May-16 11:28 39.785517 -108.762475 249 17992ft 239kts
28-May-16 11:29 39.760693 -108.842257 249 18002ft 240kts
28-May-16 11:30 39.735658 -108.922435 249 18003ft 240kts
28-May-16 11:31 39.710540 -109.002639 249 18002ft 240kts
28-May-16 11:32 39.685461 -109.082485 249 18004ft 240kts
28-May-16 11:33 39.660243 -109.162543 249 18005ft 240kts
28-May-16 11:34 39.634905 -109.242747 249 18004ft 240kts
28-May-16 11:35 39.609492 -109.322957 249 17997ft 240kts
28-May-16 11:36 39.584185 -109.402599 249 17993ft 240kts
28-May-16 11:37 39.558702 -109.482569 249 17982ft 241kts
28-May-16 11:38 39.533161 -109.562484 249 17993ft 240kts
28-May-16 11:39 39.507629 -109.642145 249 17995ft 240kts
28-May-16 11:40 39.482694 -109.720518 248 18001ft 241kts
28-May-16 11:41 39.456908 -109.800697 248 18000ft 241kts
28-May-16 11:42 39.431026 -109.880776 248 18000ft 242kts
28-May-16 11:43 39.405069 -109.960842 248 18006ft 241kts
28-May-16 11:44 39.379403 -110.039788 248 18004ft 241kts
28-May-16 11:45 39.353388 -110.119580 248 18014ft 241kts
28-May-16 11:46 39.327308 -110.199349 248 17999ft 241kts
28-May-16 11:47 39.301211 -110.278943 248 17997ft 241kts
28-May-16 11:48 39.275128 -110.358266 248 18001ft 241kts
28-May-16 11:49 39.249121 -110.437139 248 18007ft 241kts
28-May-16 11:50 39.222941 -110.516322 248 17998ft 241kts
28-May-16 11:51 39.196643 -110.595631 248 17997ft 241kts
28-May-16 11:52 39.170663 -110.673982 248 18000ft 241kts
28-May-16 11:53 39.144826 -110.752266 247 18000ft 241kts
28-May-16 11:54 39.118767 -110.830357 246 18000ft 241kts
28-May-16 11:55 39.092057 -110.910045 246 17999ft 242kts
28-May-16 11:56 39.065187 -110.989889 245 17999ft 243kts
28-May-16 11:57 39.039307 -111.066639 245 17998ft 245kts
28-May-16 11:58 39.012038 -111.147222 245 17991ft 246kts
28-May-16 11:59 38.984563 -111.228267 245 17983ft 247kts
28-May-16 12:00 38.961757 -111.295373 245 17985ft 246kts
28-May-16 12:01 38.929785 -111.389188 245 17984ft 247kts
28-May-16 12:02 38.906696 -111.456748 245 17975ft 247kts
28-May-16 12:03 38.874853 -111.549673 245 17972ft 247kts
28-May-16 12:04 38.847060 -111.630532 245 17971ft 247kts
28-May-16 12:05 38.824310 -111.697083 244 17970ft 248kts
28-May-16 12:06 38.796513 -111.777901 244 17967ft 248kts
28-May-16 12:07 38.768484 -111.858831 244 17964ft 247kts
28-May-16 12:08 38.740691 -111.938838 244 17990ft 246kts
28-May-16 12:09 38.712739 -112.019075 244 18003ft 247kts
28-May-16 12:10 38.684747 -112.099215 244 18025ft 246kts
28-May-16 12:11 38.656707 -112.179269 244 18031ft 247kts
28-May-16 12:12 38.628608 -112.259276 244 18018ft 247kts
28-May-16 12:13 38.600260 -112.339772 244 17993ft 248kts
28-May-16 12:14 38.571885 -112.420125 244 17990ft 248kts
28-May-16 12:15 38.543549 -112.500149 244 17989ft 247kts
28-May-16 12:16 38.515018 -112.580504 244 17989ft 247kts
28-May-16 12:17 38.486723 -112.660000 244 17990ft 247kts
28-May-16 12:18 38.458553 -112.739694 244 17991ft 247kts
28-May-16 12:19 38.429976 -112.819612 244 17991ft 248kts
28-May-16 12:20 38.401258 -112.899636 244 17990ft 248kts
28-May-16 12:21 38.372453 -112.979678 244 17990ft 248kts
28-May-16 12:22 38.326105 -113.040543 213 17990ft 247kts
28-May-16 12:23 38.268255 -113.088118 213 17990ft 247kts
28-May-16 12:24 38.210511 -113.135024 213 17990ft 247kts
28-May-16 12:25 38.152578 -113.181960 213 17994ft 247kts
28-May-16 12:26 38.094752 -113.228718 213 18001ft 247kts
28-May-16 12:27 38.036742 -113.275537 213 18006ft 247kts
28-May-16 12:28 37.978824 -113.322191 213 18007ft 247kts
28-May-16 12:29 37.920769 -113.368868 213 18006ft 247kts
28-May-16 12:30 37.863278 -113.415005 213 18009ft 247kts
28-May-16 12:31 37.805293 -113.461451 213 18009ft 247kts
28-May-16 12:32 37.747105 -113.507971 213 18008ft 247kts
28-May-16 12:33 37.688744 -113.554541 213 18003ft 248kts
28-May-16 12:34 37.630467 -113.600958 213 17984ft 248kts
28-May-16 12:35 37.572235 -113.647253 213 17951ft 248kts
28-May-16 12:36 37.514478 -113.693432 212 17925ft 249kts
28-May-16 12:37 37.456117 -113.739718 212 17910ft 248kts
28-May-16 12:38 37.397702 -113.785902 212 17908ft 248kts
28-May-16 12:39 37.339155 -113.832116 212 17908ft 248kts
28-May-16 12:40 37.281022 -113.877921 212 17908ft 247kts
28-May-16 12:41 37.222759 -113.923714 211 17907ft 246kts
28-May-16 12:42 37.164748 -113.969233 211 17907ft 246kts
28-May-16 12:43 37.107606 -114.013981 211 17998ft 244kts
28-May-16 12:44 37.050019 -114.058983 211 17998ft 245kts
28-May-16 12:45 36.992408 -114.103943 211 17997ft 245kts
28-May-16 12:46 36.934601 -114.148976 211 17997ft 245kts
28-May-16 12:47 36.877774 -114.193166 211 18001ft 245kts
28-May-16 12:48 36.820035 -114.237986 211 18001ft 246kts
28-May-16 12:49 36.763016 -114.285075 224 17991ft 247kts
28-May-16 12:50 36.715456 -114.346986 224 17970ft 247kts
28-May-16 12:51 36.667751 -114.408649 224 17951ft 247kts
28-May-16 12:52 36.619999 -114.470250 224 17932ft 247kts
28-May-16 12:53 36.572150 -114.531856 224 17926ft 247kts
28-May-16 12:54 36.524408 -114.593207 224 17926ft 247kts
28-May-16 12:55 36.476901 -114.654145 224 17926ft 247kts
28-May-16 12:56 36.429351 -114.715454 224 17927ft 247kts
28-May-16 12:57 36.384070 -114.773325 224 17918ft 248kts
28-May-16 12:58 36.334759 -114.836262 224 17330ft 267kts
28-May-16 12:59 36.282015 -114.903435 224 16333ft 276kts
28-May-16 13:00 36.228741 -114.971123 224 15337ft 277kts
28-May-16 13:01 36.175511 -115.038609 224 14337ft 276kts
28-May-16 13:02 36.122686 -115.105440 224 13339ft 274kts
28-May-16 13:03 36.092513 -115.183808 290 12345ft 287kts
28-May-16 13:04 36.130031 -115.268316 296 11997ft 272kts
28-May-16 13:05 36.166196 -115.346606 296 11997ft 264kts
28-May-16 13:06 36.196419 -115.412113 296 11998ft 262kts
28-May-16 13:07 36.238277 -115.503026 296 12000ft 261kts
28-May-16 13:08 36.273945 -115.580683 296 12003ft 261kts
28-May-16 13:09 36.303947 -115.646142 296 12006ft 261kts
28-May-16 13:10 36.328096 -115.698476 296 12008ft 261kts
28-May-16 13:11 36.364023 -115.776923 295 12008ft 262kts
28-May-16 13:12 36.399766 -115.855370 295 12008ft 262kts
28-May-16 13:13 36.436027 -115.935217 296 11504ft 277kts
28-May-16 13:14 36.474637 -116.020339 296 10508ft 287kts
28-May-16 13:15 36.513808 -116.106940 296 9512ft 290kts
28-May-16 13:16 36.553127 -116.194117 296 8514ft 287kts
28-May-16 13:17 36.591712 -116.279871 296 7518ft 283kts
28-May-16 13:18 36.630014 -116.365134 296 6515ft 283kts
28-May-16 13:19 36.663611 -116.440164 297 5644ft 283kts
28-May-16 13:20 36.701607 -116.525276 298 4811ft 278kts
28-May-16 13:21 36.738553 -116.608159 297 4322ft 272kts
28-May-16 13:22 36.774497 -116.688864 297 3844ft 270kts
28-May-16 13:23 36.819235 -116.759569 333 3603ft 256kts
28-May-16 13:24 36.877347 -116.779993 359 3628ft 188kts
28-May-16 13:25 36.897475 -116.793657 133 3875ft 124kts
28-May-16 13:26 36.867526 -116.786402 167 3173ft 87kts
28-May-16 13:27 36.864128 -116.786379 8 3173ft 37kts
28-May-16 13:28 36.868598 -116.784575 93 3173ft 10kts
28-May-16 13:29 36.868595 -116.784193 86 3173ft 0kts

Navigation Log

Ident Type
Flight plan parsing failed, navigation log unavailable